createdAt,value
2024-04-30T00:01:27.733Z,9.00
2024-04-30T00:03:54.340Z,8.40
2024-04-30T00:06:20.851Z,11.00
2024-04-30T00:08:47.402Z,7.90
2024-04-30T00:11:13.969Z,8.60
2024-04-30T00:13:40.457Z,7.60
2024-04-30T00:16:07.300Z,8.70
2024-04-30T00:18:33.847Z,9.00
2024-04-30T00:21:00.513Z,7.40
2024-04-30T00:23:26.982Z,7.20
2024-04-30T00:25:53.556Z,8.50
2024-04-30T00:28:20.129Z,8.00
2024-04-30T00:30:46.667Z,7.90
2024-04-30T00:33:13.220Z,6.70
2024-04-30T00:35:39.671Z,8.10
2024-04-30T00:38:06.129Z,7.10
2024-04-30T00:40:32.669Z,7.90
2024-04-30T00:42:59.309Z,7.20
2024-04-30T00:45:25.877Z,7.10
2024-04-30T00:47:52.467Z,8.40
2024-04-30T00:50:19.256Z,9.20
2024-04-30T00:52:46.194Z,6.50
2024-04-30T00:55:12.754Z,6.80
2024-04-30T00:57:39.305Z,8.20
2024-04-30T01:00:07.212Z,7.30
2024-04-30T01:02:33.759Z,7.80
2024-04-30T01:05:01.397Z,6.90
2024-04-30T01:07:28.378Z,7.80
2024-04-30T01:09:55.293Z,8.40
2024-04-30T01:12:23.208Z,8.50
2024-04-30T01:14:49.736Z,6.90
2024-04-30T01:17:16.220Z,9.80
2024-04-30T01:19:42.701Z,7.80
2024-04-30T01:22:09.192Z,7.70
2024-04-30T01:24:35.785Z,7.40
2024-04-30T01:27:04.250Z,8.30
2024-04-30T01:29:30.731Z,8.30
2024-04-30T01:31:57.458Z,8.10
2024-04-30T01:34:24.091Z,6.30
2024-04-30T01:36:50.603Z,5.90
2024-04-30T01:39:17.115Z,9.80
2024-04-30T01:41:44.193Z,5.70
2024-04-30T01:44:10.926Z,5.90
2024-04-30T01:46:37.433Z,6.90
2024-04-30T01:49:04.060Z,8.10
2024-04-30T01:51:30.574Z,8.40
2024-04-30T01:53:57.066Z,8.70
2024-04-30T01:56:23.633Z,7.80
2024-04-30T01:58:51.028Z,6.10
2024-04-30T02:01:18.113Z,9.20
2024-04-30T02:03:44.856Z,7.00
2024-04-30T02:06:11.471Z,6.90
2024-04-30T02:08:37.937Z,7.00
2024-04-30T02:11:04.602Z,7.10
2024-04-30T02:13:31.102Z,7.10
2024-04-30T02:15:57.586Z,7.00
2024-04-30T02:18:24.087Z,7.80
2024-04-30T02:20:50.598Z,6.90
2024-04-30T02:23:17.153Z,8.50
2024-04-30T02:25:43.616Z,6.90
2024-04-30T02:28:10.086Z,6.20
2024-04-30T02:30:59.835Z,7.90
2024-04-30T02:33:44.760Z,8.70
2024-04-30T02:36:14.136Z,7.90
2024-04-30T02:38:40.925Z,6.90
2024-04-30T02:41:10.387Z,6.80
2024-04-30T02:43:37.155Z,6.40
2024-04-30T02:46:03.876Z,8.40
2024-04-30T02:48:30.474Z,6.40
2024-04-30T02:50:57.112Z,7.00
2024-04-30T02:53:23.581Z,7.00
2024-04-30T02:55:50.260Z,8.50
2024-04-30T02:58:16.760Z,6.30
2024-04-30T03:00:43.290Z,6.40
2024-04-30T03:03:09.826Z,9.30
2024-04-30T03:05:36.298Z,8.30
2024-04-30T03:08:02.908Z,7.20
2024-04-30T03:10:29.433Z,6.70
2024-04-30T03:12:56.251Z,8.60
2024-04-30T03:15:22.747Z,5.00
2024-04-30T03:17:49.657Z,7.50
2024-04-30T03:20:19.874Z,6.70
2024-04-30T03:22:47.611Z,6.60
2024-04-30T03:25:14.874Z,8.10
2024-04-30T03:27:41.822Z,9.00
2024-04-30T03:30:09.294Z,6.30
2024-04-30T03:32:36.135Z,6.80
2024-04-30T03:35:02.926Z,6.90
2024-04-30T03:37:29.405Z,6.60
2024-04-30T03:39:55.895Z,7.20
2024-04-30T03:42:22.540Z,7.40
2024-04-30T03:44:52.441Z,5.60
2024-04-30T03:47:19.397Z,6.90
2024-04-30T03:49:46.106Z,7.80
2024-04-30T03:52:12.628Z,6.00
2024-04-30T03:54:39.143Z,7.30
2024-04-30T03:57:06.032Z,8.30
2024-04-30T03:59:32.596Z,6.60
2024-04-30T04:01:59.179Z,6.00
2024-04-30T04:04:25.794Z,6.50
2024-04-30T04:06:52.386Z,7.90
2024-04-30T04:09:21.954Z,7.30
2024-04-30T04:12:06.960Z,8.40
2024-04-30T04:14:49.882Z,6.90
2024-04-30T04:17:17.979Z,7.80
2024-04-30T04:19:45.651Z,10.20
2024-04-30T04:22:12.314Z,8.10
2024-04-30T04:24:38.846Z,7.80
2024-04-30T04:27:06.665Z,9.20
2024-04-30T04:29:34.282Z,8.80
2024-04-30T04:32:01.480Z,6.30
2024-04-30T04:34:28.452Z,8.30
2024-04-30T04:36:55.171Z,7.40
2024-04-30T04:39:21.817Z,8.90
2024-04-30T04:41:48.290Z,9.00
2024-04-30T04:44:14.794Z,9.20
2024-04-30T04:46:41.327Z,9.90
2024-04-30T04:49:08.273Z,9.40
2024-04-30T04:51:35.014Z,11.70
2024-04-30T04:54:01.761Z,8.40
2024-04-30T04:56:28.422Z,9.00
2024-04-30T04:58:54.957Z,9.20
2024-04-30T05:01:21.614Z,9.40
2024-04-30T05:03:48.274Z,7.20
2024-04-30T05:06:14.888Z,8.10
2024-04-30T05:08:44.980Z,8.50
2024-04-30T05:11:15.876Z,9.00
2024-04-30T05:13:42.500Z,6.80
2024-04-30T05:16:09.378Z,6.70
2024-04-30T05:18:36.963Z,10.40
2024-04-30T05:21:04.229Z,10.90
2024-04-30T05:23:30.750Z,7.70
2024-04-30T05:25:57.245Z,9.50
2024-04-30T05:28:24.040Z,6.60
2024-04-30T05:30:50.561Z,9.30
2024-04-30T05:33:17.258Z,11.90
2024-04-30T05:35:43.875Z,9.40
2024-04-30T05:38:10.289Z,10.10
2024-04-30T05:40:36.850Z,8.00
2024-04-30T05:43:09.166Z,9.30
2024-04-30T05:45:35.766Z,6.40
2024-04-30T05:48:02.401Z,6.90
2024-04-30T05:50:28.989Z,9.10
2024-04-30T05:52:55.677Z,7.50
2024-04-30T05:55:22.219Z,7.20
2024-04-30T05:57:48.798Z,7.30
2024-04-30T06:00:15.414Z,8.70
2024-04-30T06:02:41.904Z,8.50
2024-04-30T06:05:08.459Z,9.30
2024-04-30T06:07:35.134Z,8.30
2024-04-30T06:10:01.716Z,15.70
2024-04-30T06:12:28.239Z,10.60
2024-04-30T06:14:54.783Z,11.70
2024-04-30T06:17:21.360Z,10.30
2024-04-30T06:19:47.917Z,10.30
2024-04-30T06:22:14.677Z,11.00
2024-04-30T06:24:41.133Z,9.30
2024-04-30T06:27:07.770Z,8.60
2024-04-30T06:29:37.952Z,10.70
2024-04-30T06:32:07.789Z,11.00
2024-04-30T06:34:34.315Z,11.30
2024-04-30T06:37:00.880Z,11.10
2024-04-30T06:39:27.390Z,9.60
2024-04-30T06:41:53.840Z,9.50
2024-04-30T06:44:21.369Z,8.40
2024-04-30T06:46:47.853Z,10.30
2024-04-30T06:49:14.425Z,11.40
2024-04-30T06:51:41.332Z,10.50
2024-04-30T06:54:08.259Z,10.40
2024-04-30T06:56:34.712Z,8.40
2024-04-30T06:59:01.314Z,11.80
2024-04-30T07:01:27.878Z,8.90
2024-04-30T07:03:54.379Z,9.90
2024-04-30T07:06:20.842Z,10.30
2024-04-30T07:08:47.351Z,10.80
2024-04-30T07:11:13.847Z,8.40
2024-04-30T07:13:40.410Z,10.30
2024-04-30T07:16:07.136Z,8.60
2024-04-30T07:18:34.006Z,8.90
2024-04-30T07:21:01.869Z,8.20
2024-04-30T07:23:28.387Z,8.70
2024-04-30T07:25:54.901Z,7.10
2024-04-30T07:28:21.492Z,8.10
2024-04-30T07:30:48.058Z,11.80
2024-04-30T07:33:14.769Z,7.30
2024-04-30T07:35:42.102Z,9.10
2024-04-30T07:38:08.585Z,7.90
2024-04-30T07:40:35.132Z,11.10
2024-04-30T07:43:01.620Z,7.20
2024-04-30T07:45:28.207Z,8.00
2024-04-30T07:47:54.905Z,9.40
2024-04-30T07:50:21.573Z,9.40
2024-04-30T07:52:48.111Z,7.70
2024-04-30T07:55:14.765Z,8.50
2024-04-30T07:57:41.341Z,8.30
2024-04-30T08:00:11.758Z,8.90
2024-04-30T08:02:38.376Z,26.30
2024-04-30T08:05:05.209Z,10.70
2024-04-30T08:07:31.791Z,9.00
2024-04-30T08:09:58.360Z,9.20
2024-04-30T08:12:24.842Z,8.40
2024-04-30T08:14:51.344Z,8.70
2024-04-30T08:17:17.862Z,10.80
2024-04-30T08:19:44.361Z,8.20
2024-04-30T08:22:10.963Z,6.80
2024-04-30T08:24:37.457Z,7.90
2024-04-30T08:27:04.285Z,7.00
2024-04-30T08:29:30.838Z,7.10
2024-04-30T08:31:57.974Z,7.00
2024-04-30T08:34:24.537Z,6.50
2024-04-30T08:36:50.986Z,8.10
2024-04-30T08:39:17.618Z,7.80
2024-04-30T08:41:48.664Z,8.00
2024-04-30T08:44:16.342Z,7.70
2024-04-30T08:46:46.244Z,8.60
2024-04-30T08:49:20.394Z,8.00
2024-04-30T08:51:57.469Z,8.00
2024-04-30T08:54:26.680Z,8.50
2024-04-30T08:56:53.460Z,9.40
2024-04-30T08:59:19.939Z,8.50
2024-04-30T09:01:52.230Z,9.00
2024-04-30T09:04:19.125Z,6.80
2024-04-30T09:06:45.864Z,8.30
2024-04-30T09:09:16.708Z,7.90
2024-04-30T09:11:44.052Z,8.20
2024-04-30T09:14:11.162Z,8.60
2024-04-30T09:16:50.196Z,9.20
2024-04-30T09:19:27.500Z,7.10
2024-04-30T09:22:04.981Z,10.50
2024-04-30T09:24:31.723Z,12.70
2024-04-30T09:26:58.301Z,8.30
2024-04-30T09:29:36.559Z,12.20
2024-04-30T09:32:04.199Z,8.30
2024-04-30T09:34:41.794Z,10.80
2024-04-30T09:37:24.186Z,8.50
2024-04-30T09:39:53.656Z,8.90
2024-04-30T09:42:21.081Z,9.00
2024-04-30T09:44:50.833Z,9.50
2024-04-30T09:47:19.042Z,8.60
2024-04-30T09:49:46.431Z,10.00
2024-04-30T09:52:15.617Z,9.50
2024-04-30T09:54:44.202Z,11.30
2024-04-30T09:57:11.509Z,9.40
2024-04-30T09:59:38.047Z,10.90
2024-04-30T10:02:12.158Z,7.90
2024-04-30T10:04:39.506Z,12.10
2024-04-30T10:07:06.392Z,9.80
2024-04-30T10:09:33.005Z,10.80
2024-04-30T10:11:59.487Z,10.90
2024-04-30T10:14:30.231Z,9.70
2024-04-30T10:17:01.689Z,13.50
2024-04-30T10:19:29.051Z,7.10
2024-04-30T10:21:55.685Z,8.00
2024-04-30T10:24:23.350Z,7.60
2024-04-30T10:26:51.590Z,9.50
2024-04-30T10:29:18.569Z,8.40
2024-04-30T10:31:49.419Z,9.00
2024-04-30T10:34:16.501Z,9.80
2024-04-30T10:36:48.166Z,9.90
2024-04-30T10:39:25.924Z,11.00
2024-04-30T10:41:52.417Z,11.50
2024-04-30T10:44:18.998Z,11.40
2024-04-30T10:46:45.541Z,10.50
2024-04-30T10:49:13.012Z,9.90
2024-04-30T10:51:39.466Z,9.30
2024-04-30T10:54:06.191Z,8.00
2024-04-30T10:56:32.742Z,9.60
2024-04-30T10:59:01.020Z,8.50
2024-04-30T11:01:31.479Z,9.70
2024-04-30T11:04:12.550Z,7.80
2024-04-30T11:06:44.846Z,9.10
2024-04-30T11:09:13.327Z,10.70
2024-04-30T11:11:50.742Z,8.40
2024-04-30T11:14:19.412Z,8.20
2024-04-30T11:16:47.627Z,10.20
2024-04-30T11:19:14.903Z,9.60
2024-04-30T11:21:41.711Z,8.50
2024-04-30T11:24:10.198Z,11.10
2024-04-30T11:26:37.083Z,10.40
2024-04-30T11:29:16.284Z,9.10
2024-04-30T11:31:50.035Z,13.30
2024-04-30T11:34:16.755Z,9.20
2024-04-30T11:36:43.317Z,10.60
2024-04-30T11:39:13.732Z,8.60
2024-04-30T11:41:43.566Z,10.20
2024-04-30T11:44:14.825Z,10.40
2024-04-30T11:46:41.304Z,11.60
2024-04-30T11:49:07.910Z,10.50
2024-04-30T11:51:34.395Z,11.20
2024-04-30T11:54:00.859Z,10.40
2024-04-30T11:56:30.445Z,8.60
2024-04-30T11:58:57.346Z,11.30
2024-04-30T12:01:23.961Z,9.00
2024-04-30T12:03:50.802Z,10.60
2024-04-30T12:06:17.428Z,11.10
2024-04-30T12:08:44.005Z,12.00
2024-04-30T12:11:10.662Z,8.10
2024-04-30T12:13:39.921Z,9.40
2024-04-30T12:16:06.771Z,9.90
2024-04-30T12:18:33.346Z,12.90
2024-04-30T12:20:59.899Z,11.20
2024-04-30T12:23:26.412Z,9.30
2024-04-30T12:25:52.943Z,11.40
2024-04-30T12:28:20.970Z,14.20
2024-04-30T12:30:47.591Z,11.60
2024-04-30T12:33:14.645Z,10.80
2024-04-30T12:35:41.319Z,11.90
2024-04-30T12:38:08.011Z,13.20
2024-04-30T12:40:34.511Z,10.80
2024-04-30T12:43:01.027Z,10.40
2024-04-30T12:45:27.526Z,11.50
2024-04-30T12:47:54.117Z,12.10
2024-04-30T12:50:20.649Z,12.70
2024-04-30T12:52:47.475Z,12.60
2024-04-30T12:55:13.996Z,10.80
2024-04-30T12:57:40.526Z,13.60
2024-04-30T13:00:07.788Z,9.90
2024-04-30T13:02:34.335Z,10.80
2024-04-30T13:05:00.938Z,15.60
2024-04-30T13:07:27.704Z,9.70
2024-04-30T13:09:54.173Z,11.40
2024-04-30T13:12:20.678Z,15.60
2024-04-30T13:14:47.127Z,11.70
2024-04-30T13:17:13.623Z,12.50
2024-04-30T13:19:40.122Z,12.60
2024-04-30T13:22:06.707Z,13.80
2024-04-30T13:24:33.283Z,14.30
2024-04-30T13:26:59.876Z,12.80
2024-04-30T13:29:26.383Z,17.50
2024-04-30T13:31:54.701Z,10.30
2024-04-30T13:34:21.183Z,10.40
2024-04-30T13:36:47.710Z,11.10
2024-04-30T13:39:16.878Z,9.90
2024-04-30T13:41:43.399Z,13.90
2024-04-30T13:44:09.915Z,10.70
2024-04-30T13:46:36.472Z,12.60
2024-04-30T13:49:02.943Z,12.20
2024-04-30T13:51:29.468Z,13.10
2024-04-30T13:53:55.892Z,10.00
2024-04-30T13:56:22.390Z,9.90
2024-04-30T13:58:48.946Z,11.90
2024-04-30T14:01:16.919Z,12.70
2024-04-30T14:03:44.311Z,9.50
2024-04-30T14:06:12.717Z,10.50
2024-04-30T14:08:39.183Z,12.60
2024-04-30T14:11:06.138Z,11.60
2024-04-30T14:13:33.981Z,11.90
2024-04-30T14:16:01.085Z,9.40
2024-04-30T14:18:27.617Z,11.30
2024-04-30T14:20:54.141Z,13.10
2024-04-30T14:23:20.699Z,13.00
2024-04-30T14:25:47.215Z,10.30
2024-04-30T14:28:13.806Z,11.30
2024-04-30T14:30:40.296Z,13.00
2024-04-30T14:33:07.008Z,13.40
2024-04-30T14:35:53.503Z,11.00
2024-04-30T14:38:19.999Z,16.10
2024-04-30T14:40:47.647Z,12.10
2024-04-30T14:43:14.259Z,24.40
2024-04-30T14:45:40.751Z,10.80
2024-04-30T14:48:07.991Z,16.30
2024-04-30T14:50:34.623Z,16.50
2024-04-30T14:53:01.234Z,12.10
2024-04-30T14:55:27.693Z,10.80
2024-04-30T14:57:54.249Z,13.90
2024-04-30T15:00:20.778Z,14.80
2024-04-30T15:02:47.275Z,15.10
2024-04-30T15:05:13.959Z,15.40
2024-04-30T15:07:40.714Z,14.90
2024-04-30T15:10:07.753Z,13.50
2024-04-30T15:12:34.232Z,14.60
2024-04-30T15:15:00.733Z,11.30
2024-04-30T15:17:27.359Z,12.10
2024-04-30T15:19:53.940Z,12.40
2024-04-30T15:22:20.460Z,13.20
2024-04-30T15:24:47.058Z,12.50
2024-04-30T15:27:14.331Z,11.30
2024-04-30T15:29:40.864Z,11.80
2024-04-30T15:32:07.340Z,12.80
2024-04-30T15:34:34.348Z,13.30
2024-04-30T15:37:00.864Z,13.20
2024-04-30T15:39:27.423Z,13.70
2024-04-30T15:41:55.129Z,12.00
2024-04-30T15:44:21.707Z,14.10
2024-04-30T15:46:48.316Z,15.00
2024-04-30T15:49:15.424Z,16.60
2024-04-30T15:51:42.455Z,15.10
2024-04-30T15:54:13.627Z,14.00
2024-04-30T15:56:46.633Z,13.60
2024-04-30T15:59:20.525Z,13.40
2024-04-30T16:01:47.121Z,15.70
2024-04-30T16:04:14.505Z,13.10
2024-04-30T16:06:42.649Z,16.20
2024-04-30T16:09:09.159Z,16.60
2024-04-30T16:11:35.762Z,16.90
2024-04-30T16:14:02.348Z,12.30
2024-04-30T16:16:28.951Z,14.80
2024-04-30T16:18:55.478Z,14.80
2024-04-30T16:21:23.519Z,13.80
2024-04-30T16:23:49.974Z,16.20
2024-04-30T16:26:16.482Z,12.20
2024-04-30T16:28:43.918Z,16.20
2024-04-30T16:31:11.418Z,18.50
2024-04-30T16:33:38.256Z,15.10
2024-04-30T16:36:05.702Z,14.60
2024-04-30T16:38:32.391Z,15.30
2024-04-30T16:40:58.861Z,14.60
2024-04-30T16:43:25.325Z,15.50
2024-04-30T16:45:51.941Z,15.00
2024-04-30T16:48:18.630Z,16.80
2024-04-30T16:50:45.283Z,12.80
2024-04-30T16:53:11.955Z,19.40
2024-04-30T16:55:38.402Z,19.50
2024-04-30T16:58:05.419Z,13.80
2024-04-30T17:00:32.117Z,12.90
2024-04-30T17:02:59.790Z,15.70
2024-04-30T17:05:27.094Z,15.10
2024-04-30T17:07:53.705Z,16.00
2024-04-30T17:10:20.374Z,13.00
2024-04-30T17:12:48.951Z,14.50
2024-04-30T17:15:15.562Z,16.90
2024-04-30T17:17:42.148Z,14.60
2024-04-30T17:20:08.857Z,14.50
2024-04-30T17:22:37.288Z,15.00
2024-04-30T17:25:04.298Z,20.20
2024-04-30T17:27:30.979Z,16.40
2024-04-30T17:29:57.563Z,17.50
2024-04-30T17:32:24.252Z,16.30
2024-04-30T17:34:51.027Z,16.40
2024-04-30T17:37:17.969Z,14.40
2024-04-30T17:39:44.525Z,17.10
2024-04-30T17:42:11.161Z,16.70
2024-04-30T17:44:38.317Z,21.40
2024-04-30T17:47:06.359Z,13.10
2024-04-30T17:49:33.023Z,16.30
2024-04-30T17:51:59.516Z,14.60
2024-04-30T17:54:26.107Z,15.60
2024-04-30T17:56:52.839Z,15.20
2024-04-30T17:59:20.541Z,18.50
2024-04-30T18:01:48.594Z,18.00
2024-04-30T18:04:15.320Z,18.30
2024-04-30T18:06:41.967Z,15.70
2024-04-30T18:09:08.583Z,15.10
2024-04-30T18:11:35.126Z,14.20
2024-04-30T18:14:02.921Z,16.80
2024-04-30T18:16:29.514Z,13.00
2024-04-30T18:19:49.051Z,17.80
2024-04-30T18:22:30.837Z,16.30
2024-04-30T18:24:57.314Z,21.90
2024-04-30T18:27:23.926Z,15.60
2024-04-30T18:29:50.524Z,16.80
2024-04-30T18:32:17.050Z,17.10
2024-04-30T18:34:44.279Z,17.30
2024-04-30T18:37:11.296Z,18.40
2024-04-30T18:39:41.081Z,15.00
2024-04-30T18:42:07.628Z,17.90
2024-04-30T18:44:35.281Z,16.70
2024-04-30T18:47:01.846Z,15.10
2024-04-30T18:49:28.495Z,16.60
2024-04-30T18:51:55.503Z,17.20
2024-04-30T18:54:21.939Z,15.80
2024-04-30T18:56:51.020Z,15.40
2024-04-30T18:59:19.255Z,14.10
2024-04-30T19:01:48.810Z,13.30
2024-04-30T19:04:15.443Z,13.30
2024-04-30T19:06:42.417Z,17.90
2024-04-30T19:09:09.057Z,11.20
2024-04-30T19:11:35.583Z,15.00
2024-04-30T19:14:02.166Z,16.00
2024-04-30T19:16:28.640Z,10.50
2024-04-30T19:18:55.208Z,17.80
2024-04-30T19:21:21.753Z,13.70
2024-04-30T19:23:48.265Z,18.10
2024-04-30T19:26:14.978Z,13.90
2024-04-30T19:28:41.385Z,13.60
2024-04-30T19:31:19.655Z,14.50
2024-04-30T19:33:47.291Z,13.60
2024-04-30T19:36:19.591Z,13.40
2024-04-30T19:38:47.019Z,10.90
2024-04-30T19:41:14.671Z,12.70
2024-04-30T19:43:41.269Z,13.70
2024-04-30T19:46:21.043Z,11.50
2024-04-30T19:48:51.348Z,15.60
2024-04-30T19:51:21.871Z,14.30
2024-04-30T19:53:49.610Z,13.70
2024-04-30T19:56:23.084Z,16.10
2024-04-30T19:58:55.640Z,14.90
2024-04-30T20:01:25.922Z,13.40
2024-04-30T20:03:52.572Z,14.90
2024-04-30T20:06:19.819Z,16.60
2024-04-30T20:08:46.468Z,13.10
2024-04-30T20:11:20.624Z,15.60
2024-04-30T20:13:47.971Z,16.10
2024-04-30T20:16:16.007Z,14.20
2024-04-30T20:18:44.342Z,16.50
2024-04-30T20:21:14.815Z,15.40
2024-04-30T20:23:42.372Z,17.50
2024-04-30T20:26:11.246Z,14.00
2024-04-30T20:28:38.051Z,14.80
2024-04-30T20:31:05.656Z,16.60
2024-04-30T20:33:35.791Z,18.50
2024-04-30T20:36:02.320Z,13.00
2024-04-30T20:38:30.023Z,16.30
2024-04-30T20:40:56.491Z,17.50
2024-04-30T20:43:22.978Z,18.20
2024-04-30T20:45:49.922Z,13.40
2024-04-30T20:48:17.437Z,13.40
2024-04-30T20:50:44.302Z,18.30
2024-04-30T20:53:10.753Z,14.40
2024-04-30T20:55:37.191Z,13.50
2024-04-30T20:58:03.915Z,14.80
2024-04-30T21:00:30.402Z,14.30
2024-04-30T21:02:56.969Z,15.50
2024-04-30T21:05:23.472Z,12.50
2024-04-30T21:07:49.925Z,16.30
2024-04-30T21:10:16.403Z,14.00
2024-04-30T21:12:42.916Z,15.90
2024-04-30T21:15:09.386Z,13.30
2024-04-30T21:17:36.336Z,15.00
2024-04-30T21:20:03.935Z,16.10
2024-04-30T21:22:32.359Z,13.20
2024-04-30T21:24:59.735Z,15.60
2024-04-30T21:27:26.866Z,16.40
2024-04-30T21:29:53.583Z,12.90
2024-04-30T21:32:20.091Z,11.90
2024-04-30T21:34:48.795Z,11.80
2024-04-30T21:37:15.622Z,15.00
2024-04-30T21:39:44.215Z,12.40
2024-04-30T21:42:10.814Z,13.30
2024-04-30T21:44:37.282Z,12.80
2024-04-30T21:47:04.143Z,12.80
2024-04-30T21:49:30.762Z,9.90
2024-04-30T21:51:57.334Z,10.70
2024-04-30T21:54:23.857Z,12.10
2024-04-30T21:56:50.281Z,11.60
2024-04-30T21:59:16.766Z,14.10
2024-04-30T22:01:49.310Z,15.80
2024-04-30T22:04:15.994Z,11.30
2024-04-30T22:06:42.708Z,14.90
2024-04-30T22:09:09.259Z,12.80
2024-04-30T22:11:35.756Z,13.20
2024-04-30T22:14:02.231Z,16.50
2024-04-30T22:16:28.778Z,15.30
2024-04-30T22:18:55.487Z,10.60
2024-04-30T22:21:24.478Z,10.20
2024-04-30T22:23:51.958Z,11.30
2024-04-30T22:26:18.424Z,15.30
2024-04-30T22:28:44.964Z,11.70
2024-04-30T22:31:11.467Z,11.70
2024-04-30T22:33:38.173Z,11.30
2024-04-30T22:36:05.675Z,13.30
2024-04-30T22:38:32.424Z,11.00
2024-04-30T22:40:58.865Z,10.40
2024-04-30T22:43:25.482Z,13.50
2024-04-30T22:45:52.624Z,13.80
2024-04-30T22:48:19.396Z,13.70
2024-04-30T22:50:45.972Z,11.20
2024-04-30T22:53:12.515Z,10.90
2024-04-30T22:55:39.007Z,10.40
2024-04-30T22:58:05.543Z,11.60
2024-04-30T23:00:32.163Z,11.40
2024-04-30T23:02:58.731Z,11.90
2024-04-30T23:05:25.275Z,14.30
2024-04-30T23:07:51.744Z,12.40
2024-04-30T23:10:18.354Z,12.60
2024-04-30T23:12:44.846Z,12.30
2024-04-30T23:15:11.321Z,11.80
2024-04-30T23:17:38.034Z,9.30
2024-04-30T23:20:05.177Z,13.80
2024-04-30T23:22:31.638Z,10.80
2024-04-30T23:24:58.116Z,13.70
2024-04-30T23:27:24.715Z,11.40
2024-04-30T23:29:51.226Z,13.40
2024-04-30T23:32:17.845Z,13.60
2024-04-30T23:34:44.578Z,12.40
2024-04-30T23:37:11.142Z,11.80
2024-04-30T23:39:37.712Z,12.30
2024-04-30T23:42:06.359Z,10.90
2024-04-30T23:44:34.969Z,11.30
2024-04-30T23:47:01.542Z,11.60
2024-04-30T23:49:28.027Z,14.10
2024-04-30T23:51:54.579Z,13.20
2024-04-30T23:54:21.092Z,9.60
2024-04-30T23:56:47.513Z,12.00
2024-04-30T23:59:13.940Z,11.80
